Time;durP1;ratioP1;P1;durP2;ratioP2;P2;SDS_P1;SDS_P2;PMS_P1;PMS_P2;Temp;Humidity;BMP_temperature;BMP_pressure;BME280_temperature;BME280_humidity;BME280_pressure;Samples;Min_cycle;Max_cycle;Signal;HPM_P1;HPM_P2
2022/10/13 00:02:03;;;;;;;61.60;38.22;;;;;;;9.32;99.23;98470.88;10378398;28;20035;-57
2022/10/13 00:07:02;;;;;;;62.05;38.80;;;;;;;9.15;99.43;98461.94;10378114;28;20144;-57
2022/10/13 00:12:01;;;;;;;64.30;38.35;;;;;;;9.19;99.23;98474.09;10378486;28;20156;-57
2022/10/13 00:17:00;;;;;;;55.78;35.95;;;;;;;9.19;99.25;98474.09;10378148;28;20025;-57
2022/10/13 00:21:59;;;;;;;51.47;33.83;;;;;;;9.17;98.75;98456.78;10377822;28;20495;-57
2022/10/13 00:26:58;;;;;;;55.13;35.25;;;;;;;9.18;98.47;98458.50;10377650;28;20107;-57
2022/10/13 00:31:57;;;;;;;58.53;35.75;;;;;;;9.17;98.75;98455.06;10377347;28;20035;-57
2022/10/13 00:36:55;;;;;;;53.78;35.08;;;;;;;9.14;98.71;98440.34;10376937;28;20116;-57
2022/10/13 00:41:57;;;;;;;53.88;36.13;;;;;;;9.15;99.41;98441.22;10377349;28;20111;-57
2022/10/13 00:46:56;;;;;;;101.72;41.38;;;;;;;9.19;99.77;98445.59;10377315;28;20060;-57
2022/10/13 00:51:55;;;;;;;193.85;53.55;;;;;;;9.14;100.00;98439.47;10377437;28;20067;-57
2022/10/13 00:56:54;;;;;;;164.00;53.88;;;;;;;9.14;100.00;98435.16;10376901;28;20029;-58
2022/10/13 01:01:56;;;;;;;136.00;50.20;;;;;;;9.11;100.00;98447.19;10375548;28;20068;-57
2022/10/13 01:06:56;;;;;;;194.63;52.60;;;;;;;9.03;100.00;98441.03;10374778;28;20095;-57
2022/10/13 01:12:08;;;;;;;98.93;42.70;;;;;;;8.98;100.00;98435.78;10375589;28;20060;-57
2022/10/13 01:17:31;;;;;;;151.15;47.88;;;;;;;8.97;100.00;98431.41;10374909;28;20073;-57
2022/10/13 01:22:36;;;;;;;165.68;49.00;;;;;;;9.02;100.00;98428.91;10375631;28;20083;-57
2022/10/13 01:27:56;;;;;;;186.40;50.28;;;;;;;9.06;100.00;98425.53;10375516;28;20068;-57
2022/10/13 01:33:13;;;;;;;106.00;44.03;;;;;;;9.10;100.00;98423.00;10375427;28;20492;-57
2022/10/13 01:38:25;;;;;;;123.40;42.42;;;;;;;9.10;100.00;98411.78;10375389;28;20485;-57
2022/10/13 01:43:35;;;;;;;130.60;42.05;;;;;;;9.17;100.00;98423.97;10374492;28;20072;-58
2022/10/13 01:48:36;;;;;;;;;;;;;;;9.17;100.00;98423.97;10374532;28;20060;-57
2022/10/13 01:53:36;;;;;;;153.95;49.15;;;;;;;9.17;100.00;98405.00;10374368;28;19951;-57
2022/10/13 01:58:37;;;;;;;97.43;44.70;;;;;;;9.20;100.00;98405.03;10376000;28;20441;-57
2022/10/13 02:03:51;;;;;;;76.25;40.05;;;;;;;9.23;100.00;98398.19;10377360;28;20064;-57
2022/10/13 02:09:09;;;;;;;82.63;39.17;;;;;;;9.28;100.00;98396.56;10377286;28;20052;-58
2022/10/13 02:14:20;;;;;;;160.70;44.38;;;;;;;9.39;100.00;98401.00;10376938;28;20056;-57
2022/10/13 02:19:20;;;;;;;148.27;42.67;;;;;;;9.35;100.00;98390.63;10375885;28;20071;-57
2022/10/13 02:24:19;;;;;;;121.50;40.38;;;;;;;9.42;100.00;98393.28;10376436;28;20060;-57
2022/10/13 02:29:18;;;;;;;265.77;51.05;;;;;;;9.42;100.00;98398.47;10376485;28;20029;-57
2022/10/13 02:34:17;;;;;;;;;;;;;;;9.42;100.00;98385.50;10376729;28;20029;-57
2022/10/13 02:39:16;;;;;;;142.20;37.53;;;;;;;9.31;100.00;98378.47;10376009;28;19952;-57
2022/10/13 02:44:15;;;;;;;135.73;39.50;;;;;;;9.31;100.00;98385.38;10375671;28;20488;-58
2022/10/13 02:49:14;;;;;;;197.23;43.60;;;;;;;9.27;100.00;98384.41;10375868;28;20045;-57
2022/10/13 02:54:13;;;;;;;91.50;38.40;;;;;;;9.21;100.00;98384.34;10375444;28;20476;-57
2022/10/13 02:59:12;;;;;;;84.20;37.33;;;;;;;9.13;100.00;98370.41;10373436;28;20033;-57
2022/10/13 03:04:11;;;;;;;97.47;37.17;;;;;;;9.20;100.00;98377.41;10371937;28;20040;-57
2022/10/13 03:09:10;;;;;;;155.27;39.33;;;;;;;9.12;100.00;98372.13;10372059;28;20558;-57
2022/10/13 03:14:09;;;;;;;;;;;;;;;9.06;100.00;98359.09;10372200;28;20072;-58
2022/10/13 03:19:08;;;;;;;85.90;37.03;;;;;;;9.07;100.00;98359.97;10364823;28;19912;-58
2022/10/13 03:24:07;;;;;;;82.10;36.63;;;;;;;9.16;100.00;98360.09;10370025;28;20072;-57
2022/10/13 03:29:06;;;;;;;93.63;36.67;;;;;;;9.22;100.00;98370.53;10372232;28;20097;-58
2022/10/13 03:34:05;;;;;;;188.35;44.85;;;;;;;9.25;100.00;98364.53;10377235;28;20107;-57
2022/10/13 03:39:05;;;;;;;111.60;34.50;;;;;;;9.28;100.00;98364.59;10378167;28;20440;-57
2022/10/13 03:44:04;;;;;;;103.18;34.03;;;;;;;9.24;100.00;98363.66;10378825;28;20499;-57
2022/10/13 03:49:03;;;;;;;68.32;33.20;;;;;;;9.08;100.00;98372.06;10378301;28;20539;-57
2022/10/13 03:54:02;;;;;;;109.35;38.85;;;;;;;8.78;100.00;98377.63;10379309;28;20061;-57
2022/10/13 03:59:03;;;;;;;;;;;;;;;8.74;100.00;98376.72;10379230;28;20061;-57
2022/10/13 04:04:02;;;;;;;127.15;39.75;;;;;;;8.62;100.00;98369.63;10378288;28;19999;-57
2022/10/13 04:09:02;;;;;;;89.22;32.92;;;;;;;8.51;100.00;98374.63;10372170;28;20087;-57
2022/10/13 04:14:01;;;;;;;185.68;44.35;;;;;;;8.44;100.00;98372.78;10376221;28;20071;-57
2022/10/13 04:19:03;;;;;;;84.13;36.78;;;;;;;8.42;100.00;98368.41;10376522;28;20039;-57
2022/10/13 04:24:02;;;;;;;89.18;39.40;;;;;;;8.47;100.00;98370.22;10376132;28;20079;-57
2022/10/13 04:29:04;;;;;;;78.85;37.55;;;;;;;8.54;100.00;98362.59;10376258;28;20444;-57
2022/10/13 04:34:03;;;;;;;69.32;32.38;;;;;;;8.55;100.00;98365.19;10375769;28;20064;-57
2022/10/13 04:39:02;;;;;;;56.30;29.70;;;;;;;8.26;100.00;98352.63;10375564;28;20061;-57
2022/10/13 04:44:01;;;;;;;73.88;31.33;;;;;;;8.20;100.00;98359.38;10371494;28;20064;-57
2022/10/13 04:49:00;;;;;;;83.25;33.17;;;;;;;8.11;100.00;98356.63;10374953;28;20027;-57
2022/10/13 04:54:00;;;;;;;108.47;36.50;;;;;;;8.17;100.00;98372.28;10375556;28;20044;-57
2022/10/13 04:58:59;;;;;;;95.03;34.90;;;;;;;8.30;100.00;98363.91;10377435;28;20075;-57
2022/10/13 05:04:00;;;;;;;100.45;36.70;;;;;;;8.43;100.00;98367.56;10378031;28;20474;-57
2022/10/13 05:08:59;;;;;;;83.03;34.85;;;;;;;8.42;100.00;98374.44;10383217;28;20080;-57
2022/10/13 05:14:01;;;;;;;65.03;32.22;;;;;;;8.49;100.00;98365.94;10377483;28;20061;-57
2022/10/13 05:19:00;;;;;;;68.38;30.90;;;;;;;8.70;100.00;98380.09;10377537;28;20496;-57
2022/10/13 05:24:01;;;;;;;100.72;32.88;;;;;;;8.63;100.00;98384.31;10377265;28;20039;-57
2022/10/13 05:29:01;;;;;;;85.80;28.80;;;;;;;8.46;100.00;98370.22;10376480;28;20064;-57
2022/10/13 05:34:01;;;;;;;85.60;30.30;;;;;;;8.39;100.00;98377.00;10377804;28;20476;-57
2022/10/13 05:39:03;;;;;;;86.20;31.92;;;;;;;8.46;100.00;98393.50;10375238;28;20056;-57
2022/10/13 05:44:06;;;;;;;119.53;36.95;;;;;;;8.34;100.00;98394.16;10375104;28;20488;-58
2022/10/13 05:49:05;;;;;;;92.45;34.97;;;;;;;8.61;100.00;98416.16;10376060;28;20107;-57
2022/10/13 05:54:12;;;;;;;100.38;37.00;;;;;;;8.79;100.00;98400.09;10372967;28;20407;-57
2022/10/13 05:59:14;;;;;;;91.82;37.03;;;;;;;8.92;100.00;98418.41;10370906;28;20496;-57
2022/10/13 06:04:19;;;;;;;127.43;37.05;;;;;;;9.05;100.00;98416.91;10369977;28;20075;-58
2022/10/13 06:09:18;;;;;;;75.13;37.97;;;;;;;9.18;100.00;98410.19;10372417;28;20072;-57
2022/10/13 06:14:17;;;;;;;;;;;;;;;9.25;100.00;98411.13;10373437;28;20052;-57
2022/10/13 06:19:16;;;;;;;76.53;42.38;;;;;;;9.34;100.00;98411.31;10369349;28;19912;-57
2022/10/13 06:24:15;;;;;;;96.05;41.03;;;;;;;9.38;100.00;98425.19;10373885;28;20517;-57
2022/10/13 06:29:14;;;;;;;82.03;43.00;;;;;;;9.39;100.00;98432.09;10372406;28;20060;-57
2022/10/13 06:34:13;;;;;;;;;;;;;;;9.55;100.00;98418.50;10397144;28;20055;-57
2022/10/13 06:39:13;;;;;;;100.22;43.83;;;;;;;9.77;100.00;98427.47;10404549;28;19952;-57
2022/10/13 06:44:12;;;;;;;109.53;46.05;;;;;;;9.82;100.00;98433.56;10373897;28;20060;-58
2022/10/13 06:49:11;;;;;;;78.05;41.70;;;;;;;9.94;100.00;98420.75;10373115;28;20061;-58
2022/10/13 06:54:10;;;;;;;85.40;43.95;;;;;;;9.99;100.00;98433.78;10372538;28;20120;-58
2022/10/13 06:59:09;;;;;;;95.72;46.85;;;;;;;10.18;100.00;98420.16;10373525;28;20032;-58
2022/10/13 07:04:09;;;;;;;76.35;44.03;;;;;;;10.39;100.00;98414.34;10373395;28;20049;-58
2022/10/13 07:09:07;;;;;;;;;;;;;;;10.37;100.00;98397.88;10373853;28;20080;-58
2022/10/13 07:14:06;;;;;;;74.53;44.67;;;;;;;10.68;100.00;98418.06;10373803;28;19909;-58
2022/10/13 07:19:05;;;;;;;67.55;40.20;;;;;;;10.67;100.00;98408.56;10375315;28;20039;-58
2022/10/13 07:24:05;;;;;;;59.05;39.05;;;;;;;10.61;100.00;98378.19;10373882;28;20075;-58
2022/10/13 07:29:05;;;;;;;65.55;42.10;;;;;;;10.85;100.00;98416.50;10373282;28;20061;-58
2022/10/13 07:34:04;;;;;;;;;;;;;;;10.95;99.82;98410.56;10373991;28;20488;-58
2022/10/13 07:39:03;;;;;;;67.10;44.13;;;;;;;11.17;99.32;98395.13;10372639;28;19952;-58
2022/10/13 07:44:02;;;;;;;62.72;42.47;;;;;;;11.49;98.57;98408.31;10372694;28;20454;-58
2022/10/13 07:49:01;;;;;;;60.70;42.65;;;;;;;11.59;97.44;98407.50;10373487;28;20057;-58
2022/10/13 07:54:00;;;;;;;59.05;40.30;;;;;;;11.69;97.05;98403.25;10370946;28;20049;-58
2022/10/13 07:59:01;;;;;;;58.83;41.25;;;;;;;11.91;96.05;98400.75;10379239;28;20400;-58
2022/10/13 08:04:00;;;;;;;59.50;41.38;;;;;;;12.04;94.04;98402.50;10371102;28;20053;-58
2022/10/13 08:08:59;;;;;;;59.72;41.75;;;;;;;12.10;94.36;98402.53;10369878;28;20051;-58
2022/10/13 08:14:01;;;;;;;;;;;;;;;12.49;93.85;98400.94;10370468;28;20060;-58
2022/10/13 08:19:00;;;;;;;55.83;39.35;;;;;;;12.78;90.79;98394.88;10379748;28;19940;-58
2022/10/13 08:23:58;;;;;;;51.63;37.15;;;;;;;12.96;91.09;98387.09;10381002;28;20029;-58
2022/10/13 08:28:57;;;;;;;52.15;39.13;;;;;;;13.08;88.71;98389.66;10380824;28;20025;-58
2022/10/13 08:33:57;;;;;;;53.30;38.08;;;;;;;13.36;89.08;98393.09;10366579;28;20443;-58
2022/10/13 08:38:56;;;;;;;56.40;43.22;;;;;;;13.70;89.08;98376.53;10356604;28;20031;-58
2022/10/13 08:44:01;;;;;;;51.53;39.50;;;;;;;13.87;86.17;98374.75;10380416;28;20040;-58
2022/10/13 08:49:00;;;;;;;50.20;37.72;;;;;;;13.90;84.76;98364.28;10380546;28;20063;-58
2022/10/13 08:53:59;;;;;;;48.15;36.60;;;;;;;14.04;84.33;98355.53;10379906;28;20052;-58
2022/10/13 08:59:00;;;;;;;47.05;31.98;;;;;;;14.15;82.50;98336.31;10377528;28;20029;-58
2022/10/13 09:04:38;;;;;;;41.50;30.27;;;;;;;14.48;81.92;98350.03;10376758;28;20567;-58
2022/10/13 09:09:37;;;;;;;40.42;30.88;;;;;;;14.73;80.73;98345.53;10375526;28;20076;-59
2022/10/13 09:14:38;;;;;;;34.90;24.35;;;;;;;14.90;79.25;98331.44;10376262;28;20061;-58
2022/10/13 09:19:37;;;;;;;26.73;21.17;;;;;;;15.07;77.40;98326.91;10375916;28;20456;-58
2022/10/13 09:24:36;;;;;;;30.80;20.20;;;;;;;15.24;76.79;98319.75;10375652;28;20546;-58
2022/10/13 09:29:35;;;;;;;;;;;;;;;15.56;76.84;98320.28;10375365;28;20543;-58
2022/10/13 09:34:34;;;;;;;23.90;17.10;;;;;;;15.76;75.75;98310.41;10375144;28;19908;-58
2022/10/13 09:39:33;;;;;;;;;;;;;;;15.99;74.49;98312.75;10375432;28;20033;-58
2022/10/13 09:44:32;;;;;;;21.92;16.88;;;;;;;16.28;74.62;98306.25;10374649;28;20008;-58
2022/10/13 09:49:37;;;;;;;17.83;14.48;;;;;;;16.49;69.10;98295.44;10374343;28;20075;-58
2022/10/13 09:54:39;;;;;;;16.10;12.05;;;;;;;16.49;67.13;98295.44;10374806;28;20056;-58
2022/10/13 09:59:53;;;;;;;14.85;10.07;;;;;;;16.70;64.42;98293.38;10373795;28;20083;-58
2022/10/13 10:04:53;;;;;;;16.70;11.77;;;;;;;16.85;63.32;98287.03;10361304;28;20081;-58
2022/10/13 10:10:00;;;;;;;18.35;12.38;;;;;;;16.85;62.66;98277.38;10372504;28;20594;-59
2022/10/13 10:15:00;;;;;;;19.17;13.55;;;;;;;16.93;63.47;98270.28;10373796;28;20067;-59
2022/10/13 10:20:20;;;;;;;16.05;11.93;;;;;;;16.93;62.44;98259.78;10373061;28;20075;-58
2022/10/13 10:25:32;;;;;;;17.17;12.52;;;;;;;17.08;62.21;98255.13;10372432;28;20068;-58
2022/10/13 10:30:35;;;;;;;19.15;12.32;;;;;;;17.29;61.56;98232.88;10332097;28;20076;-58
2022/10/13 10:35:59;;;;;;;14.65;10.00;;;;;;;17.49;59.37;98232.44;10364073;28;20488;-58
2022/10/13 10:41:22;;;;;;;13.90;9.18;;;;;;;17.73;56.79;98220.53;10369922;28;20068;-58
2022/10/13 10:46:33;;;;;;;13.13;9.75;;;;;;;18.00;56.36;98223.47;10372817;28;20068;-59
2022/10/13 10:51:36;;;;;;;13.48;10.13;;;;;;;18.26;55.00;98221.09;10369006;28;20064;-59
2022/10/13 10:56:43;;;;;;;15.23;9.85;;;;;;;18.51;54.86;98221.34;10369963;28;20530;-59
2022/10/13 11:01:55;;;;;;;12.93;9.00;;;;;;;18.64;54.89;98205.25;10370691;28;20061;-59
2022/10/13 11:06:54;;;;;;;11.25;8.35;;;;;;;18.95;55.07;98206.19;10369666;28;20088;-59
2022/10/13 11:11:53;;;;;;;13.35;9.30;;;;;;;19.06;54.09;98200.63;10368981;28;20032;-59
2022/10/13 11:17:14;;;;;;;14.30;9.90;;;;;;;19.28;54.56;98181.59;10368052;28;20694;-59
2022/10/13 11:22:17;;;;;;;13.68;9.02;;;;;;;19.40;52.51;98173.34;10368352;28;20514;-58
2022/10/13 11:27:16;;;;;;;11.35;8.20;;;;;;;19.41;52.02;98157.47;10369343;28;20071;-59
2022/10/13 11:32:29;;;;;;;12.25;8.40;;;;;;;19.59;52.24;98150.00;10371132;28;20052;-59
2022/10/13 11:37:35;;;;;;;16.55;8.55;;;;;;;19.91;51.56;98143.72;10368250;28;20064;-59
2022/10/13 11:42:58;;;;;;;12.77;9.45;;;;;;;20.29;51.71;98137.16;10368091;28;20079;-59
2022/10/13 12:01:05;;;;;;;12.07;7.53;;;;;;;19.48;48.90;98115.19;10489268;27;20476;-59
2022/10/13 12:06:25;;;;;;;15.10;8.18;;;;;;;19.34;48.82;98113.84;10490057;28;20074;-59
2022/10/13 12:11:27;;;;;;;10.95;7.00;;;;;;;19.18;48.85;98112.59;10491589;28;20062;-60
2022/10/13 12:16:27;;;;;;;10.35;7.53;;;;;;;19.27;48.82;98100.94;10491047;28;20050;-58
2022/10/13 12:21:26;;;;;;;12.20;9.13;;;;;;;19.30;48.45;98109.59;10489044;28;20075;-59
2022/10/13 12:26:26;;;;;;;8.57;7.20;;;;;;;19.49;49.28;98112.53;10486633;28;20023;-59
2022/10/13 12:31:46;;;;;;;12.52;7.60;;;;;;;19.71;49.37;98115.38;10491296;28;20474;-59
2022/10/13 12:36:52;;;;;;;11.15;6.82;;;;;;;19.92;49.05;98115.59;10459529;28;20134;-59
2022/10/13 12:41:53;;;;;;;10.25;7.00;;;;;;;20.09;47.81;98107.97;10488445;28;20059;-59
2022/10/13 12:46:55;;;;;;;14.05;9.18;;;;;;;20.07;46.91;98105.41;10492055;28;20506;-58
2022/10/13 12:52:03;;;;;;;9.75;7.03;;;;;;;20.09;47.45;98105.34;10491532;28;20066;-59
2022/10/13 12:57:14;;;;;;;9.40;6.25;;;;;;;19.57;47.41;98078.94;10491070;28;20078;-59
2022/10/13 13:02:33;;;;;;;10.27;6.20;;;;;;;19.59;47.79;98089.44;10462052;28;20064;-58
2022/10/13 13:07:36;;;;;;;9.73;6.30;;;;;;;19.38;47.89;98088.31;10462843;28;20071;-58
2022/10/13 13:12:36;;;;;;;13.85;7.38;;;;;;;19.36;48.83;98079.59;10461946;28;20068;-59
2022/10/13 13:17:36;;;;;;;11.93;6.90;;;;;;;19.40;48.66;98086.50;10462707;28;20059;-58
2022/10/13 13:22:35;;;;;;;13.15;7.32;;;;;;;19.52;48.39;98085.25;10461984;28;20062;-58
2022/10/13 13:27:38;;;;;;;9.55;6.63;;;;;;;19.64;47.60;98092.78;10462179;28;20016;-58
2022/10/13 13:32:37;;;;;;;8.73;6.03;;;;;;;19.39;47.19;98085.63;10460955;28;20059;-58
2022/10/13 13:37:40;;;;;;;10.75;6.95;;;;;;;19.56;47.82;98081.66;10459447;28;20502;-58
2022/10/13 13:42:39;;;;;;;12.77;6.38;;;;;;;19.25;47.25;98082.56;10440236;28;20083;-58
2022/10/13 13:47:38;;;;;;;9.77;7.43;;;;;;;19.28;47.99;98079.84;10419019;28;20108;-58
2022/10/13 13:52:37;;;;;;;13.18;8.07;;;;;;;19.27;47.62;98075.47;10419868;28;20068;-58
2022/10/13 13:57:36;;;;;;;11.82;6.43;;;;;;;19.24;47.41;98072.94;10419579;28;20128;-58
2022/10/13 14:02:35;;;;;;;10.88;6.55;;;;;;;19.21;47.69;98076.53;10425364;28;20140;-58
2022/10/13 14:07:34;;;;;;;10.85;7.07;;;;;;;19.19;47.77;98077.50;10461112;28;20081;-58
2022/10/13 14:12:33;;;;;;;11.88;6.53;;;;;;;19.20;48.14;98079.19;10453961;28;20028;-59
2022/10/13 14:17:32;;;;;;;10.68;6.70;;;;;;;18.98;48.32;98074.59;10460322;28;20063;-59
2022/10/13 14:22:31;;;;;;;11.70;6.13;;;;;;;18.68;49.04;98080.72;10460159;28;20047;-58
2022/10/13 14:27:32;;;;;;;10.23;6.65;;;;;;;18.68;49.19;98083.34;10459423;28;20107;-58
2022/10/13 14:32:32;;;;;;;12.63;7.28;;;;;;;18.66;49.52;98085.16;10458709;28;20067;-58
2022/10/13 14:37:31;;;;;;;16.30;8.85;;;;;;;18.50;50.02;98101.38;10459504;28;20054;-58
2022/10/13 14:42:30;;;;;;;10.35;6.63;;;;;;;18.24;50.37;98090.69;10459031;28;20024;-58
2022/10/13 14:47:29;;;;;;;10.82;7.05;;;;;;;18.08;51.14;98080.59;10458503;28;20478;-58
2022/10/13 14:52:28;;;;;;;12.18;8.02;;;;;;;18.00;51.46;98087.78;10459672;28;20032;-59
2022/10/13 14:57:26;;;;;;;13.50;9.55;;;;;;;17.80;52.37;98082.16;10457603;28;20055;-58
2022/10/13 15:02:25;;;;;;;12.55;9.02;;;;;;;17.73;52.53;98090.19;10424429;28;20056;-58
2022/10/13 15:07:24;;;;;;;16.88;9.65;;;;;;;17.71;53.25;98089.34;10440568;28;20131;-58
2022/10/13 15:12:23;;;;;;;15.52;10.75;;;;;;;17.72;53.52;98088.44;10443025;28;20052;-59
2022/10/13 15:17:22;;;;;;;15.73;11.15;;;;;;;17.65;53.17;98094.75;10429048;28;20590;-59
2022/10/13 15:22:21;;;;;;;14.65;10.38;;;;;;;17.58;53.33;98098.41;10395153;28;20078;-58
2022/10/13 15:27:20;;;;;;;23.02;13.90;;;;;;;17.47;53.50;98103.03;10371645;28;20035;-58
2022/10/13 15:32:20;;;;;;;12.65;8.55;;;;;;;17.25;54.06;98092.19;10373431;28;20069;-59
2022/10/13 15:37:19;;;;;;;14.55;10.25;;;;;;;17.21;54.18;98096.63;10371581;28;20068;-59
2022/10/13 15:42:18;;;;;;;21.02;16.17;;;;;;;17.22;54.34;98097.50;10372578;28;20112;-59
2022/10/13 15:47:17;;;;;;;21.13;15.75;;;;;;;17.21;54.69;98096.63;10370316;28;20025;-59
2022/10/13 15:52:16;;;;;;;17.33;12.82;;;;;;;17.21;55.35;98107.13;10371685;28;20045;-59
2022/10/13 15:57:14;;;;;;;;;;;;;;;17.00;55.25;98105.81;10372323;28;20596;-59
2022/10/13 16:02:13;;;;;;;20.33;14.63;;;;;;;16.82;56.27;98093.13;10371331;28;20381;-58
2022/10/13 16:07:12;;;;;;;;;;;;;;;16.63;57.37;98103.94;10371878;28;20112;-58
2022/10/13 16:12:11;;;;;;;37.87;22.00;;;;;;;16.49;57.37;98101.59;10372181;28;19944;-58
2022/10/13 16:17:10;;;;;;;;;;;;;;;16.35;57.87;98113.19;10372159;28;20029;-58
2022/10/13 16:22:09;;;;;;;34.10;28.13;;;;;;;16.20;58.78;98115.22;10371430;28;20003;-59
2022/10/13 16:27:07;;;;;;;;;;;;;;;16.13;59.49;98117.97;10371376;28;20029;-59
2022/10/13 16:32:06;;;;;;;32.65;16.08;;;;;;;16.01;60.49;98114.66;10365338;28;19917;-59
2022/10/13 16:37:05;;;;;;;21.67;13.95;;;;;;;15.84;61.33;98111.47;10378511;28;20468;-59
2022/10/13 16:42:04;;;;;;;;;;;;;;;15.66;62.07;98112.59;10379047;28;20471;-59
2022/10/13 16:47:05;;;;;;;22.50;14.00;;;;;;;15.57;62.71;98097.91;10376934;28;20341;-59
2022/10/13 16:52:04;;;;;;;35.22;14.40;;;;;;;15.46;63.15;98100.69;10378741;28;20087;-59
2022/10/13 16:57:03;;;;;;;;;;;;;;;15.38;63.83;98096.47;10378289;28;20048;-59
2022/10/13 17:02:01;;;;;;;20.95;14.88;;;;;;;15.29;64.68;98097.44;10377714;28;19913;-59
2022/10/13 17:07:00;;;;;;;;;;;;;;;15.19;65.21;98088.88;10378345;28;20059;-59
2022/10/13 17:11:59;;;;;;;47.55;33.25;;;;;;;15.09;65.86;98097.75;10377871;28;20020;-59
2022/10/13 17:16:58;;;;;;;;;;;;;;;15.00;66.45;98101.34;10378487;28;20105;-59
2022/10/13 17:21:57;;;;;;;32.70;20.35;;;;;;;14.95;67.66;98102.28;10377991;28;19955;-59
2022/10/13 17:26:56;;;;;;;;;;;;;;;14.85;67.56;98106.78;10377759;28;20028;-58
2022/10/13 17:31:54;;;;;;;32.83;20.30;;;;;;;14.79;68.71;98105.09;10377432;28;19913;-59
2022/10/13 17:36:53;;;;;;;53.10;38.05;;;;;;;14.74;68.96;98103.44;10375319;28;20033;-59
2022/10/13 17:41:52;;;;;;;;;;;;;;;14.70;69.19;98102.59;10377178;28;20037;-59
2022/10/13 17:46:51;;;;;;;34.67;27.00;;;;;;;14.66;69.58;98105.22;10376659;28;19947;-59
2022/10/13 17:51:52;;;;;;;;;;;;;;;14.62;70.51;98101.78;10377326;28;20068;-59
2022/10/13 17:56:54;;;;;;;24.35;18.63;;;;;;;14.60;70.85;98098.34;10376041;28;20391;-59
2022/10/13 18:01:52;;;;;;;25.08;18.17;;;;;;;14.40;71.23;98075.03;10375784;28;20487;-59
2022/10/13 18:06:51;;;;;;;;;;;;;;;14.54;71.57;98107.09;10377317;28;20566;-59
2022/10/13 18:11:52;;;;;;;35.50;23.73;;;;;;;14.51;71.68;98111.50;10375337;28;20432;-59
2022/10/13 18:16:52;;;;;;;39.05;27.30;;;;;;;14.50;72.41;98112.34;10376702;28;20475;-58
2022/10/13 18:21:51;;;;;;;39.00;28.17;;;;;;;14.36;72.75;98097.72;10375414;28;20071;-59
2022/10/13 18:26:50;;;;;;;31.38;23.52;;;;;;;14.38;73.18;98114.25;10375278;28;20072;-58
2022/10/13 18:31:49;;;;;;;;;;;;;;;14.29;73.28;98105.63;10375227;28;20064;-59
2022/10/13 18:36:51;;;;;;;27.83;17.27;;;;;;;14.23;73.85;98110.91;10369953;28;19956;-59
2022/10/13 18:41:51;;;;;;;22.50;16.48;;;;;;;14.17;73.79;98117.03;10371341;28;20072;-59
2022/10/13 18:46:52;;;;;;;28.35;19.35;;;;;;;14.10;73.92;98105.81;10373278;28;20563;-59
2022/10/13 18:51:51;;;;;;;29.02;21.02;;;;;;;14.02;73.92;98099.78;10373484;28;20135;-58
2022/10/13 18:56:51;;;;;;;27.95;18.33;;;;;;;13.96;74.02;98095.50;10372209;28;20072;-59
2022/10/13 19:01:50;;;;;;;25.42;15.55;;;;;;;13.95;74.52;98109.41;10373535;28;20083;-59
2022/10/13 19:06:49;;;;;;;;;;;;;;;13.87;74.33;98123.44;10372141;28;20053;-59
2022/10/13 19:11:48;;;;;;;19.10;12.23;;;;;;;13.79;74.86;98107.81;10372577;28;19923;-58
2022/10/13 19:16:47;;;;;;;18.65;11.95;;;;;;;13.72;74.95;98113.97;10373320;28;20479;-59
2022/10/13 19:21:46;;;;;;;;;;;;;;;13.67;74.72;98111.38;10372181;28;20080;-58
2022/10/13 19:26:45;;;;;;;18.83;14.73;;;;;;;13.66;75.48;98114.88;10371690;28;19913;-59
2022/10/13 19:31:44;;;;;;;22.45;15.88;;;;;;;13.60;76.13;98125.34;10373357;28;20155;-59
2022/10/13 19:36:46;;;;;;;21.75;16.05;;;;;;;13.55;76.51;98120.16;10372002;28;20035;-58
2022/10/13 19:41:46;;;;;;;21.77;13.80;;;;;;;13.42;77.48;98121.13;10371753;28;20484;-59
2022/10/13 19:46:46;;;;;;;21.25;14.43;;;;;;;13.39;77.68;98117.66;10371978;28;20537;-59
2022/10/13 19:51:46;;;;;;;25.92;18.65;;;;;;;13.36;78.01;98114.19;10372685;28;20068;-58
2022/10/13 19:56:47;;;;;;;27.08;19.48;;;;;;;13.35;77.92;98119.41;10372137;28;20076;-58
2022/10/13 20:01:46;;;;;;;28.60;19.45;;;;;;;13.36;77.85;98110.72;10372763;28;20490;-59
2022/10/13 20:06:49;;;;;;;24.50;17.83;;;;;;;13.38;77.90;98111.56;10372350;28;20064;-59
2022/10/13 20:11:50;;;;;;;20.02;15.80;;;;;;;13.38;77.44;98110.72;10379133;28;20482;-59
2022/10/13 20:16:49;;;;;;;21.38;15.65;;;;;;;13.34;77.56;98117.69;10380839;28;20451;-59
2022/10/13 20:21:51;;;;;;;21.48;14.63;;;;;;;13.34;77.75;98110.72;10380401;28;20408;-59
2022/10/13 20:26:50;;;;;;;22.58;17.65;;;;;;;13.28;77.78;98112.50;10379822;28;20067;-58
2022/10/13 20:31:49;;;;;;;21.30;16.10;;;;;;;13.27;78.10;98113.38;10380163;28;20036;-59
2022/10/13 20:36:49;;;;;;;25.45;17.67;;;;;;;13.23;78.43;98116.88;10379735;28;20491;-59
2022/10/13 20:41:48;;;;;;;26.55;19.83;;;;;;;13.14;78.94;98107.34;10379884;28;20076;-58
2022/10/13 20:46:47;;;;;;;30.65;21.92;;;;;;;13.03;79.67;98102.22;10379630;28;20029;-59
2022/10/13 20:51:46;;;;;;;30.75;23.25;;;;;;;12.92;80.32;98098.81;10379304;28;20059;-59
2022/10/13 20:56:46;;;;;;;32.00;23.52;;;;;;;12.82;80.92;98097.13;10379148;28;20053;-59
2022/10/13 21:01:45;;;;;;;32.50;23.20;;;;;;;12.78;80.84;98095.41;10378979;28;20063;-59
2022/10/13 21:06:44;;;;;;;34.13;24.45;;;;;;;12.63;81.10;98065.97;10378836;28;20028;-59
2022/10/13 21:11:43;;;;;;;35.17;25.75;;;;;;;12.72;80.97;98084.16;10378383;28;20072;-58
2022/10/13 21:16:42;;;;;;;47.42;31.58;;;;;;;12.67;81.33;98079.81;10378475;28;20133;-58
2022/10/13 21:21:41;;;;;;;30.20;23.90;;;;;;;12.63;81.42;98073.75;10378098;28;20473;-58
2022/10/13 21:26:40;;;;;;;31.65;25.35;;;;;;;12.59;81.75;98085.06;10378139;28;20033;-58
2022/10/13 21:31:39;;;;;;;33.83;24.27;;;;;;;12.50;82.03;98082.47;10377559;28;20087;-58
2022/10/13 21:36:42;;;;;;;25.65;19.52;;;;;;;12.44;82.68;98080.78;10377529;28;20072;-58
2022/10/13 21:41:42;;;;;;;24.85;17.23;;;;;;;12.36;83.07;98074.72;10377665;28;20065;-58
2022/10/13 21:46:40;;;;;;;;;;;;;;;12.28;83.30;98060.88;10377701;28;20500;-58
2022/10/13 21:51:40;;;;;;;27.35;17.70;;;;;;;12.18;83.70;98056.50;10376780;28;20391;-58
2022/10/13 21:56:40;;;;;;;24.10;13.60;;;;;;;12.06;84.14;98057.41;10376422;28;20080;-58
2022/10/13 22:01:40;;;;;;;25.40;16.10;;;;;;;11.96;85.04;98056.56;10375487;28;20069;-58
2022/10/13 22:06:39;;;;;;;22.13;15.45;;;;;;;11.93;85.09;98050.53;10372164;28;20087;-58
2022/10/13 22:11:39;;;;;;;29.25;21.50;;;;;;;11.86;85.94;98055.72;10372275;28;20071;-58
2022/10/13 22:16:44;;;;;;;40.03;27.90;;;;;;;11.75;86.41;98044.47;10372210;28;20515;-58
2022/10/13 22:21:46;;;;;;;34.05;25.67;;;;;;;11.71;86.36;98042.72;10372440;28;20068;-58
2022/10/13 22:26:47;;;;;;;35.97;24.85;;;;;;;11.69;86.79;98047.09;10372513;28;20739;-58
2022/10/13 22:31:46;;;;;;;31.17;23.58;;;;;;;11.66;87.17;98044.47;10372197;28;20484;-58
2022/10/13 22:36:45;;;;;;;;;;;;;;;11.64;87.09;98041.00;10375584;28;20060;-58
2022/10/13 22:41:44;;;;;;;31.00;21.33;;;;;;;11.61;87.41;98059.22;10374726;28;19915;-58
2022/10/13 22:46:43;;;;;;;30.48;22.23;;;;;;;11.58;87.75;98054.03;10374293;28;20071;-58
2022/10/13 22:51:42;;;;;;;26.38;21.48;;;;;;;11.55;87.60;98049.69;10374757;28;20056;-58
2022/10/13 22:56:42;;;;;;;27.25;20.42;;;;;;;11.42;88.10;98033.22;10374482;28;20057;-58
2022/10/13 23:01:41;;;;;;;;;;;;;;;11.52;88.53;98049.66;10374626;28;20060;-58
2022/10/13 23:06:39;;;;;;;20.85;15.57;;;;;;;11.51;88.57;98052.28;10373965;28;19924;-58
2022/10/13 23:11:39;;;;;;;21.80;16.63;;;;;;;11.50;88.42;98034.94;10373735;28;20043;-58
2022/10/13 23:16:38;;;;;;;23.30;16.88;;;;;;;11.50;88.82;98032.34;10373687;28;20077;-58
2022/10/13 23:21:37;;;;;;;28.65;19.90;;;;;;;11.48;89.00;98042.75;10373504;28;20052;-58